Terminal Aerodrome Forecast
Issued by NWS Hastings, NE

Home | Current Version | Previous Version | Text Only | Print | Product List | Glossary On
Versions: 1 2 3 4 5 6 7 8 9 10 11 12 13
000
FTUS43 KGID 280555 CCA
TAFGRI
TAF COR
KGRI 280555Z 2806/0106 VRB06KT 6SM BR BKN200
     FM281000 33009KT 6SM BR SCT015 BKN150
     FM281300 34011KT P6SM SCT015 BKN150
     FM281800 35012KT P6SM VCSH SCT015 BKN040
     FM010000 31013KT P6SM SCT040 BKN100=

USA.gov is the U.S. government's official web portal to all federal, state and local government web resources and services.